sensor_id;sensor_type;location;lat;lon;timestamp;P1;durP1;ratioP1;P2;durP2;ratioP2
50683;SDS011;36654;45.042;38.994;2023-12-14T00:00:18;70.20;;;18.70;;
50683;SDS011;36654;45.042;38.994;2023-12-14T00:02:44;74.22;;;17.95;;
50683;SDS011;36654;45.042;38.994;2023-12-14T00:05:10;81.55;;;18.85;;
50683;SDS011;36654;45.042;38.994;2023-12-14T00:07:35;113.07;;;21.80;;
50683;SDS011;36654;45.042;38.994;2023-12-14T00:10:01;65.57;;;18.45;;
50683;SDS011;36654;45.042;38.994;2023-12-14T00:12:28;66.32;;;19.52;;
50683;SDS011;36654;45.042;38.994;2023-12-14T00:14:54;128.43;;;24.25;;
50683;SDS011;36654;45.042;38.994;2023-12-14T00:17:20;75.85;;;19.58;;
50683;SDS011;36654;45.042;38.994;2023-12-14T00:19:45;70.72;;;20.17;;
50683;SDS011;36654;45.042;38.994;2023-12-14T00:22:11;81.70;;;18.13;;
50683;SDS011;36654;45.042;38.994;2023-12-14T00:24:36;70.03;;;18.35;;
50683;SDS011;36654;45.042;38.994;2023-12-14T00:27:02;53.15;;;19.15;;
50683;SDS011;36654;45.042;38.994;2023-12-14T00:29:28;71.38;;;18.90;;
50683;SDS011;36654;45.042;38.994;2023-12-14T00:31:53;66.40;;;18.40;;
50683;SDS011;36654;45.042;38.994;2023-12-14T00:34:19;72.63;;;22.17;;
50683;SDS011;36654;45.042;38.994;2023-12-14T00:36:45;82.32;;;20.08;;
50683;SDS011;36654;45.042;38.994;2023-12-14T00:39:10;89.45;;;22.38;;
50683;SDS011;36654;45.042;38.994;2023-12-14T00:41:36;64.50;;;20.83;;
50683;SDS011;36654;45.042;38.994;2023-12-14T00:44:01;76.15;;;22.17;;
50683;SDS011;36654;45.042;38.994;2023-12-14T00:46:27;58.55;;;19.33;;
50683;SDS011;36654;45.042;38.994;2023-12-14T00:48:53;106.22;;;22.60;;
50683;SDS011;36654;45.042;38.994;2023-12-14T00:51:18;99.82;;;20.92;;
50683;SDS011;36654;45.042;38.994;2023-12-14T00:53:44;125.07;;;21.60;;
50683;SDS011;36654;45.042;38.994;2023-12-14T00:56:10;73.07;;;18.33;;
50683;SDS011;36654;45.042;38.994;2023-12-14T00:58:36;77.97;;;20.58;;
50683;SDS011;36654;45.042;38.994;2023-12-14T01:01:01;84.05;;;18.95;;
50683;SDS011;36654;45.042;38.994;2023-12-14T01:03:27;77.40;;;20.58;;
50683;SDS011;36654;45.042;38.994;2023-12-14T01:05:52;64.38;;;17.52;;
50683;SDS011;36654;45.042;38.994;2023-12-14T01:08:18;109.68;;;18.85;;
50683;SDS011;36654;45.042;38.994;2023-12-14T01:10:43;85.40;;;16.88;;
50683;SDS011;36654;45.042;38.994;2023-12-14T01:13:09;66.55;;;16.20;;
50683;SDS011;36654;45.042;38.994;2023-12-14T01:15:35;90.38;;;16.75;;
50683;SDS011;36654;45.042;38.994;2023-12-14T01:18:00;115.43;;;20.27;;
50683;SDS011;36654;45.042;38.994;2023-12-14T01:20:26;84.82;;;17.50;;
50683;SDS011;36654;45.042;38.994;2023-12-14T01:22:52;128.70;;;19.27;;
50683;SDS011;36654;45.042;38.994;2023-12-14T01:25:18;115.57;;;18.67;;
50683;SDS011;36654;45.042;38.994;2023-12-14T01:27:43;98.88;;;18.50;;
50683;SDS011;36654;45.042;38.994;2023-12-14T01:30:09;100.50;;;18.75;;
50683;SDS011;36654;45.042;38.994;2023-12-14T01:32:35;133.15;;;19.63;;
50683;SDS011;36654;45.042;38.994;2023-12-14T01:35:01;106.95;;;18.35;;
50683;SDS011;36654;45.042;38.994;2023-12-14T01:37:26;99.55;;;19.08;;
50683;SDS011;36654;45.042;38.994;2023-12-14T01:39:52;98.63;;;19.35;;
50683;SDS011;36654;45.042;38.994;2023-12-14T01:42:18;122.85;;;19.73;;
50683;SDS011;36654;45.042;38.994;2023-12-14T01:44:43;144.10;;;24.13;;
50683;SDS011;36654;45.042;38.994;2023-12-14T01:47:09;123.15;;;19.75;;
50683;SDS011;36654;45.042;38.994;2023-12-14T01:49:34;116.90;;;18.10;;
50683;SDS011;36654;45.042;38.994;2023-12-14T01:52:00;123.30;;;21.15;;
50683;SDS011;36654;45.042;38.994;2023-12-14T01:54:26;151.73;;;24.90;;
50683;SDS011;36654;45.042;38.994;2023-12-14T01:56:51;160.98;;;21.27;;
50683;SDS011;36654;45.042;38.994;2023-12-14T01:59:18;105.75;;;22.23;;
50683;SDS011;36654;45.042;38.994;2023-12-14T02:01:45;123.80;;;22.35;;
50683;SDS011;36654;45.042;38.994;2023-12-14T02:04:11;142.93;;;24.50;;
50683;SDS011;36654;45.042;38.994;2023-12-14T02:06:38;121.40;;;20.40;;
50683;SDS011;36654;45.042;38.994;2023-12-14T02:09:04;75.18;;;17.50;;
50683;SDS011;36654;45.042;38.994;2023-12-14T02:11:30;76.18;;;15.75;;
50683;SDS011;36654;45.042;38.994;2023-12-14T02:13:55;109.38;;;18.60;;
50683;SDS011;36654;45.042;38.994;2023-12-14T02:16:21;119.82;;;19.17;;
50683;SDS011;36654;45.042;38.994;2023-12-14T02:18:46;127.38;;;19.05;;
50683;SDS011;36654;45.042;38.994;2023-12-14T02:21:12;118.95;;;18.45;;
50683;SDS011;36654;45.042;38.994;2023-12-14T02:23:44;170.90;;;21.02;;
50683;SDS011;36654;45.042;38.994;2023-12-14T02:26:10;170.23;;;23.58;;
50683;SDS011;36654;45.042;38.994;2023-12-14T02:28:36;93.72;;;17.98;;
50683;SDS011;36654;45.042;38.994;2023-12-14T02:31:02;125.07;;;16.88;;
50683;SDS011;36654;45.042;38.994;2023-12-14T02:33:28;148.27;;;20.38;;
50683;SDS011;36654;45.042;38.994;2023-12-14T02:35:53;123.18;;;19.88;;
50683;SDS011;36654;45.042;38.994;2023-12-14T02:38:19;139.60;;;19.48;;
50683;SDS011;36654;45.042;38.994;2023-12-14T02:40:45;140.45;;;19.33;;
50683;SDS011;36654;45.042;38.994;2023-12-14T02:43:11;167.38;;;20.67;;
50683;SDS011;36654;45.042;38.994;2023-12-14T02:45:37;176.65;;;19.63;;
50683;SDS011;36654;45.042;38.994;2023-12-14T02:48:03;106.22;;;16.50;;
50683;SDS011;36654;45.042;38.994;2023-12-14T02:50:28;98.22;;;17.10;;
50683;SDS011;36654;45.042;38.994;2023-12-14T02:52:54;122.38;;;17.10;;
50683;SDS011;36654;45.042;38.994;2023-12-14T02:55:20;204.00;;;23.23;;
50683;SDS011;36654;45.042;38.994;2023-12-14T02:57:45;109.88;;;17.42;;
50683;SDS011;36654;45.042;38.994;2023-12-14T03:00:11;133.30;;;17.80;;
50683;SDS011;36654;45.042;38.994;2023-12-14T03:02:37;123.22;;;17.52;;
50683;SDS011;36654;45.042;38.994;2023-12-14T03:05:03;118.88;;;18.67;;
50683;SDS011;36654;45.042;38.994;2023-12-14T03:07:29;111.03;;;18.63;;
50683;SDS011;36654;45.042;38.994;2023-12-14T03:09:54;117.40;;;19.58;;
50683;SDS011;36654;45.042;38.994;2023-12-14T03:12:20;137.15;;;19.25;;
50683;SDS011;36654;45.042;38.994;2023-12-14T03:14:45;108.75;;;17.92;;
50683;SDS011;36654;45.042;38.994;2023-12-14T03:17:11;134.98;;;17.33;;
50683;SDS011;36654;45.042;38.994;2023-12-14T03:19:41;185.95;;;21.20;;
50683;SDS011;36654;45.042;38.994;2023-12-14T03:22:08;93.15;;;17.48;;
50683;SDS011;36654;45.042;38.994;2023-12-14T03:24:37;105.07;;;15.73;;
50683;SDS011;36654;45.042;38.994;2023-12-14T03:27:03;162.65;;;20.38;;
50683;SDS011;36654;45.042;38.994;2023-12-14T03:29:29;135.82;;;16.92;;
50683;SDS011;36654;45.042;38.994;2023-12-14T03:31:55;179.68;;;22.25;;
50683;SDS011;36654;45.042;38.994;2023-12-14T03:34:21;53.58;;;14.32;;
50683;SDS011;36654;45.042;38.994;2023-12-14T03:36:47;69.20;;;14.43;;
50683;SDS011;36654;45.042;38.994;2023-12-14T03:39:12;78.15;;;14.23;;
50683;SDS011;36654;45.042;38.994;2023-12-14T03:41:38;58.28;;;13.32;;
50683;SDS011;36654;45.042;38.994;2023-12-14T03:44:04;84.13;;;13.35;;
50683;SDS011;36654;45.042;38.994;2023-12-14T03:46:29;86.18;;;15.82;;
50683;SDS011;36654;45.042;38.994;2023-12-14T03:48:55;66.45;;;12.38;;
50683;SDS011;36654;45.042;38.994;2023-12-14T03:51:21;51.72;;;12.70;;
50683;SDS011;36654;45.042;38.994;2023-12-14T03:53:46;71.75;;;13.05;;
50683;SDS011;36654;45.042;38.994;2023-12-14T03:56:12;59.13;;;13.00;;
50683;SDS011;36654;45.042;38.994;2023-12-14T03:58:38;57.95;;;12.18;;
50683;SDS011;36654;45.042;38.994;2023-12-14T04:01:03;59.15;;;11.48;;
50683;SDS011;36654;45.042;38.994;2023-12-14T04:03:29;68.85;;;12.23;;
50683;SDS011;36654;45.042;38.994;2023-12-14T04:05:55;58.40;;;12.07;;
50683;SDS011;36654;45.042;38.994;2023-12-14T04:08:21;67.88;;;11.48;;
50683;SDS011;36654;45.042;38.994;2023-12-14T04:10:46;73.43;;;12.00;;
50683;SDS011;36654;45.042;38.994;2023-12-14T04:13:12;72.63;;;13.10;;
50683;SDS011;36654;45.042;38.994;2023-12-14T04:15:37;101.38;;;14.88;;
50683;SDS011;36654;45.042;38.994;2023-12-14T04:18:04;61.67;;;13.23;;
50683;SDS011;36654;45.042;38.994;2023-12-14T04:22:58;134.13;;;14.85;;
50683;SDS011;36654;45.042;38.994;2023-12-14T04:25:23;97.90;;;12.23;;
50683;SDS011;36654;45.042;38.994;2023-12-14T04:27:49;130.25;;;16.10;;
50683;SDS011;36654;45.042;38.994;2023-12-14T04:30:15;110.75;;;15.60;;
50683;SDS011;36654;45.042;38.994;2023-12-14T04:32:40;108.22;;;13.43;;
50683;SDS011;36654;45.042;38.994;2023-12-14T04:35:06;116.55;;;16.38;;
50683;SDS011;36654;45.042;38.994;2023-12-14T04:37:32;57.38;;;10.25;;
50683;SDS011;36654;45.042;38.994;2023-12-14T04:39:59;107.88;;;14.95;;
50683;SDS011;36654;45.042;38.994;2023-12-14T04:42:24;77.60;;;12.43;;
50683;SDS011;36654;45.042;38.994;2023-12-14T04:44:50;100.47;;;14.05;;
50683;SDS011;36654;45.042;38.994;2023-12-14T04:47:16;119.68;;;17.70;;
50683;SDS011;36654;45.042;38.994;2023-12-14T04:49:41;149.65;;;20.08;;
50683;SDS011;36654;45.042;38.994;2023-12-14T04:52:07;84.78;;;13.48;;
50683;SDS011;36654;45.042;38.994;2023-12-14T04:54:33;88.93;;;14.68;;
50683;SDS011;36654;45.042;38.994;2023-12-14T04:59:28;122.88;;;16.67;;
50683;SDS011;36654;45.042;38.994;2023-12-14T05:01:54;102.50;;;12.63;;
50683;SDS011;36654;45.042;38.994;2023-12-14T05:04:19;124.63;;;15.27;;
50683;SDS011;36654;45.042;38.994;2023-12-14T05:06:45;102.60;;;13.48;;
50683;SDS011;36654;45.042;38.994;2023-12-14T05:09:11;135.02;;;18.08;;
50683;SDS011;36654;45.042;38.994;2023-12-14T05:11:36;114.78;;;13.68;;
50683;SDS011;36654;45.042;38.994;2023-12-14T05:14:04;133.05;;;13.45;;
50683;SDS011;36654;45.042;38.994;2023-12-14T05:16:30;92.05;;;10.93;;
50683;SDS011;36654;45.042;38.994;2023-12-14T05:18:55;86.30;;;11.68;;
50683;SDS011;36654;45.042;38.994;2023-12-14T05:21:22;104.53;;;11.75;;
50683;SDS011;36654;45.042;38.994;2023-12-14T05:23:48;82.05;;;11.85;;
50683;SDS011;36654;45.042;38.994;2023-12-14T05:26:14;78.72;;;11.00;;
50683;SDS011;36654;45.042;38.994;2023-12-14T05:28:40;72.85;;;12.52;;
50683;SDS011;36654;45.042;38.994;2023-12-14T05:31:06;63.72;;;12.38;;
50683;SDS011;36654;45.042;38.994;2023-12-14T05:33:31;81.13;;;14.70;;
50683;SDS011;36654;45.042;38.994;2023-12-14T05:35:59;128.77;;;17.25;;
50683;SDS011;36654;45.042;38.994;2023-12-14T05:38:24;95.20;;;13.95;;
50683;SDS011;36654;45.042;38.994;2023-12-14T05:40:50;78.78;;;13.65;;
50683;SDS011;36654;45.042;38.994;2023-12-14T05:43:16;95.32;;;13.63;;
50683;SDS011;36654;45.042;38.994;2023-12-14T05:45:41;92.35;;;15.48;;
50683;SDS011;36654;45.042;38.994;2023-12-14T05:48:07;104.85;;;16.42;;
50683;SDS011;36654;45.042;38.994;2023-12-14T05:50:32;111.43;;;15.73;;
50683;SDS011;36654;45.042;38.994;2023-12-14T05:52:58;100.47;;;15.55;;
50683;SDS011;36654;45.042;38.994;2023-12-14T05:55:24;122.13;;;17.02;;
50683;SDS011;36654;45.042;38.994;2023-12-14T05:57:49;122.40;;;17.85;;
50683;SDS011;36654;45.042;38.994;2023-12-14T06:00:15;117.00;;;18.63;;
50683;SDS011;36654;45.042;38.994;2023-12-14T06:02:41;97.13;;;14.82;;
50683;SDS011;36654;45.042;38.994;2023-12-14T06:05:07;87.75;;;15.38;;
50683;SDS011;36654;45.042;38.994;2023-12-14T06:07:33;135.88;;;17.58;;
50683;SDS011;36654;45.042;38.994;2023-12-14T06:09:59;118.32;;;17.63;;
50683;SDS011;36654;45.042;38.994;2023-12-14T06:12:26;65.75;;;15.25;;
50683;SDS011;36654;45.042;38.994;2023-12-14T06:14:52;96.05;;;17.75;;
50683;SDS011;36654;45.042;38.994;2023-12-14T06:17:17;75.68;;;16.05;;
50683;SDS011;36654;45.042;38.994;2023-12-14T06:19:43;77.40;;;18.90;;
50683;SDS011;36654;45.042;38.994;2023-12-14T06:22:09;81.30;;;19.67;;
50683;SDS011;36654;45.042;38.994;2023-12-14T06:24:34;69.60;;;19.95;;
50683;SDS011;36654;45.042;38.994;2023-12-14T06:27:00;61.58;;;18.00;;
50683;SDS011;36654;45.042;38.994;2023-12-14T06:29:25;70.47;;;19.13;;
50683;SDS011;36654;45.042;38.994;2023-12-14T06:31:51;35.60;;;13.23;;
50683;SDS011;36654;45.042;38.994;2023-12-14T06:34:17;62.40;;;15.77;;
50683;SDS011;36654;45.042;38.994;2023-12-14T06:36:44;68.78;;;17.33;;
50683;SDS011;36654;45.042;38.994;2023-12-14T06:39:10;68.65;;;17.17;;
50683;SDS011;36654;45.042;38.994;2023-12-14T06:41:36;71.22;;;17.95;;
50683;SDS011;36654;45.042;38.994;2023-12-14T06:44:02;70.72;;;18.88;;
50683;SDS011;36654;45.042;38.994;2023-12-14T06:46:28;89.75;;;16.30;;
50683;SDS011;36654;45.042;38.994;2023-12-14T06:48:53;82.95;;;18.85;;
50683;SDS011;36654;45.042;38.994;2023-12-14T06:51:20;69.82;;;16.58;;
50683;SDS011;36654;45.042;38.994;2023-12-14T06:53:46;69.72;;;15.60;;
50683;SDS011;36654;45.042;38.994;2023-12-14T06:56:12;72.10;;;14.43;;
50683;SDS011;36654;45.042;38.994;2023-12-14T06:58:42;86.00;;;18.75;;
50683;SDS011;36654;45.042;38.994;2023-12-14T07:01:12;84.00;;;16.48;;
50683;SDS011;36654;45.042;38.994;2023-12-14T07:03:43;65.55;;;18.05;;
50683;SDS011;36654;45.042;38.994;2023-12-14T07:06:16;67.40;;;21.05;;
50683;SDS011;36654;45.042;38.994;2023-12-14T07:08:42;41.15;;;17.38;;
50683;SDS011;36654;45.042;38.994;2023-12-14T07:11:08;91.68;;;20.08;;
50683;SDS011;36654;45.042;38.994;2023-12-14T07:13:35;88.05;;;19.58;;
50683;SDS011;36654;45.042;38.994;2023-12-14T07:16:07;64.18;;;17.88;;
50683;SDS011;36654;45.042;38.994;2023-12-14T07:18:42;89.53;;;19.45;;
50683;SDS011;36654;45.042;38.994;2023-12-14T07:21:08;76.10;;;18.92;;
50683;SDS011;36654;45.042;38.994;2023-12-14T07:23:35;64.78;;;16.77;;
50683;SDS011;36654;45.042;38.994;2023-12-14T07:26:01;80.03;;;17.77;;
50683;SDS011;36654;45.042;38.994;2023-12-14T07:28:27;54.42;;;18.20;;
50683;SDS011;36654;45.042;38.994;2023-12-14T07:30:53;50.45;;;16.75;;
50683;SDS011;36654;45.042;38.994;2023-12-14T07:33:18;34.25;;;12.93;;
50683;SDS011;36654;45.042;38.994;2023-12-14T07:35:44;51.20;;;14.68;;
50683;SDS011;36654;45.042;38.994;2023-12-14T07:38:10;42.47;;;16.88;;
50683;SDS011;36654;45.042;38.994;2023-12-14T07:40:36;37.30;;;13.85;;
50683;SDS011;36654;45.042;38.994;2023-12-14T07:43:04;57.35;;;17.95;;
50683;SDS011;36654;45.042;38.994;2023-12-14T07:45:29;57.03;;;18.75;;
50683;SDS011;36654;45.042;38.994;2023-12-14T07:47:55;46.83;;;18.90;;
50683;SDS011;36654;45.042;38.994;2023-12-14T07:50:21;60.28;;;18.60;;
50683;SDS011;36654;45.042;38.994;2023-12-14T07:52:46;49.15;;;17.30;;
50683;SDS011;36654;45.042;38.994;2023-12-14T07:55:12;50.70;;;19.15;;
50683;SDS011;36654;45.042;38.994;2023-12-14T07:57:40;57.45;;;19.25;;
50683;SDS011;36654;45.042;38.994;2023-12-14T08:00:06;47.95;;;18.00;;
50683;SDS011;36654;45.042;38.994;2023-12-14T08:05:01;77.28;;;21.88;;
50683;SDS011;36654;45.042;38.994;2023-12-14T08:07:27;56.35;;;21.80;;
50683;SDS011;36654;45.042;38.994;2023-12-14T08:09:57;64.78;;;20.92;;
50683;SDS011;36654;45.042;38.994;2023-12-14T08:12:22;62.55;;;20.48;;
50683;SDS011;36654;45.042;38.994;2023-12-14T08:14:49;46.13;;;19.80;;
50683;SDS011;36654;45.042;38.994;2023-12-14T08:17:15;46.45;;;20.00;;
50683;SDS011;36654;45.042;38.994;2023-12-14T08:19:41;60.03;;;21.35;;
50683;SDS011;36654;45.042;38.994;2023-12-14T08:22:07;47.85;;;20.00;;
50683;SDS011;36654;45.042;38.994;2023-12-14T08:24:36;41.35;;;19.70;;
50683;SDS011;36654;45.042;38.994;2023-12-14T08:27:02;38.30;;;18.48;;
50683;SDS011;36654;45.042;38.994;2023-12-14T08:29:28;41.30;;;17.90;;
50683;SDS011;36654;45.042;38.994;2023-12-14T08:31:54;38.67;;;17.92;;
50683;SDS011;36654;45.042;38.994;2023-12-14T08:34:22;39.40;;;18.83;;
50683;SDS011;36654;45.042;38.994;2023-12-14T08:36:49;34.20;;;16.02;;
50683;SDS011;36654;45.042;38.994;2023-12-14T08:39:15;33.78;;;16.30;;
50683;SDS011;36654;45.042;38.994;2023-12-14T08:41:40;34.20;;;17.27;;
50683;SDS011;36654;45.042;38.994;2023-12-14T08:44:06;32.95;;;15.57;;
50683;SDS011;36654;45.042;38.994;2023-12-14T08:46:39;37.55;;;17.42;;
50683;SDS011;36654;45.042;38.994;2023-12-14T08:49:06;40.05;;;18.15;;
50683;SDS011;36654;45.042;38.994;2023-12-14T08:51:32;35.08;;;18.50;;
50683;SDS011;36654;45.042;38.994;2023-12-14T08:53:58;36.20;;;17.73;;
50683;SDS011;36654;45.042;38.994;2023-12-14T08:56:24;29.48;;;15.52;;
50683;SDS011;36654;45.042;38.994;2023-12-14T08:58:49;35.95;;;16.52;;
50683;SDS011;36654;45.042;38.994;2023-12-14T09:01:22;37.83;;;15.52;;
50683;SDS011;36654;45.042;38.994;2023-12-14T09:03:48;30.35;;;14.30;;
50683;SDS011;36654;45.042;38.994;2023-12-14T09:06:15;32.67;;;16.42;;
50683;SDS011;36654;45.042;38.994;2023-12-14T09:08:42;41.28;;;18.17;;
50683;SDS011;36654;45.042;38.994;2023-12-14T09:11:09;34.35;;;17.08;;
50683;SDS011;36654;45.042;38.994;2023-12-14T09:13:34;33.42;;;15.77;;
50683;SDS011;36654;45.042;38.994;2023-12-14T09:16:00;29.92;;;15.57;;
50683;SDS011;36654;45.042;38.994;2023-12-14T09:18:26;29.40;;;15.20;;
50683;SDS011;36654;45.042;38.994;2023-12-14T09:20:51;33.90;;;15.93;;
50683;SDS011;36654;45.042;38.994;2023-12-14T09:23:17;30.60;;;14.32;;
50683;SDS011;36654;45.042;38.994;2023-12-14T09:25:47;31.05;;;16.98;;
50683;SDS011;36654;45.042;38.994;2023-12-14T09:28:12;33.38;;;16.45;;
50683;SDS011;36654;45.042;38.994;2023-12-14T09:30:38;44.60;;;19.17;;
50683;SDS011;36654;45.042;38.994;2023-12-14T09:33:04;31.30;;;16.65;;
50683;SDS011;36654;45.042;38.994;2023-12-14T09:35:29;42.25;;;18.55;;
50683;SDS011;36654;45.042;38.994;2023-12-14T09:37:55;35.42;;;18.55;;
50683;SDS011;36654;45.042;38.994;2023-12-14T09:40:21;46.63;;;20.30;;
50683;SDS011;36654;45.042;38.994;2023-12-14T09:42:48;37.72;;;18.25;;
50683;SDS011;36654;45.042;38.994;2023-12-14T09:45:14;39.33;;;20.08;;
50683;SDS011;36654;45.042;38.994;2023-12-14T09:47:41;37.15;;;17.33;;
50683;SDS011;36654;45.042;38.994;2023-12-14T09:50:07;37.78;;;17.77;;
50683;SDS011;36654;45.042;38.994;2023-12-14T09:52:33;34.83;;;17.00;;
50683;SDS011;36654;45.042;38.994;2023-12-14T09:54:59;38.22;;;18.20;;
50683;SDS011;36654;45.042;38.994;2023-12-14T09:57:25;39.35;;;18.42;;
50683;SDS011;36654;45.042;38.994;2023-12-14T09:59:54;40.80;;;18.40;;
50683;SDS011;36654;45.042;38.994;2023-12-14T10:02:21;38.25;;;19.50;;
50683;SDS011;36654;45.042;38.994;2023-12-14T10:04:50;41.53;;;19.38;;
50683;SDS011;36654;45.042;38.994;2023-12-14T10:07:16;38.67;;;19.80;;
50683;SDS011;36654;45.042;38.994;2023-12-14T10:09:41;41.70;;;20.55;;
50683;SDS011;36654;45.042;38.994;2023-12-14T10:12:08;45.75;;;20.70;;
50683;SDS011;36654;45.042;38.994;2023-12-14T10:14:35;38.28;;;18.33;;
50683;SDS011;36654;45.042;38.994;2023-12-14T10:19:45;37.90;;;18.88;;
50683;SDS011;36654;45.042;38.994;2023-12-14T10:22:13;43.22;;;19.98;;
50683;SDS011;36654;45.042;38.994;2023-12-14T10:24:44;37.90;;;19.42;;
50683;SDS011;36654;45.042;38.994;2023-12-14T10:27:11;38.60;;;19.08;;
50683;SDS011;36654;45.042;38.994;2023-12-14T10:29:37;48.38;;;21.70;;
50683;SDS011;36654;45.042;38.994;2023-12-14T10:32:04;39.55;;;19.80;;
50683;SDS011;36654;45.042;38.994;2023-12-14T10:34:35;37.00;;;19.08;;
50683;SDS011;36654;45.042;38.994;2023-12-14T10:39:26;47.05;;;21.65;;
50683;SDS011;36654;45.042;38.994;2023-12-14T10:41:54;47.03;;;20.55;;
50683;SDS011;36654;45.042;38.994;2023-12-14T10:44:23;45.05;;;22.05;;
50683;SDS011;36654;45.042;38.994;2023-12-14T10:46:51;47.67;;;21.52;;
50683;SDS011;36654;45.042;38.994;2023-12-14T10:49:23;44.60;;;20.33;;
50683;SDS011;36654;45.042;38.994;2023-12-14T10:51:51;43.50;;;19.90;;
50683;SDS011;36654;45.042;38.994;2023-12-14T10:54:20;47.40;;;22.42;;
50683;SDS011;36654;45.042;38.994;2023-12-14T10:56:46;47.58;;;20.50;;
50683;SDS011;36654;45.042;38.994;2023-12-14T10:59:14;44.33;;;22.25;;
50683;SDS011;36654;45.042;38.994;2023-12-14T11:01:41;39.95;;;20.10;;
50683;SDS011;36654;45.042;38.994;2023-12-14T11:04:07;42.63;;;21.27;;
50683;SDS011;36654;45.042;38.994;2023-12-14T11:06:38;40.63;;;20.58;;
50683;SDS011;36654;45.042;38.994;2023-12-14T11:09:05;43.33;;;20.40;;
50683;SDS011;36654;45.042;38.994;2023-12-14T11:14:22;42.50;;;20.23;;
50683;SDS011;36654;45.042;38.994;2023-12-14T11:16:49;43.80;;;19.77;;
50683;SDS011;36654;45.042;38.994;2023-12-14T11:21:47;38.83;;;19.45;;
50683;SDS011;36654;45.042;38.994;2023-12-14T11:24:22;40.78;;;20.92;;
50683;SDS011;36654;45.042;38.994;2023-12-14T11:29:17;41.33;;;21.92;;
50683;SDS011;36654;45.042;38.994;2023-12-14T11:31:44;38.97;;;20.48;;
50683;SDS011;36654;45.042;38.994;2023-12-14T11:34:09;48.63;;;21.42;;
50683;SDS011;36654;45.042;38.994;2023-12-14T11:36:36;44.60;;;23.48;;
50683;SDS011;36654;45.042;38.994;2023-12-14T11:39:04;42.38;;;19.77;;
50683;SDS011;36654;45.042;38.994;2023-12-14T11:41:31;45.03;;;20.73;;
50683;SDS011;36654;45.042;38.994;2023-12-14T11:43:58;38.85;;;21.30;;
50683;SDS011;36654;45.042;38.994;2023-12-14T11:46:24;40.20;;;20.10;;
50683;SDS011;36654;45.042;38.994;2023-12-14T11:48:50;40.03;;;21.48;;
50683;SDS011;36654;45.042;38.994;2023-12-14T11:51:16;44.08;;;19.92;;
50683;SDS011;36654;45.042;38.994;2023-12-14T11:53:46;43.40;;;21.20;;
50683;SDS011;36654;45.042;38.994;2023-12-14T11:56:14;40.22;;;19.30;;
50683;SDS011;36654;45.042;38.994;2023-12-14T11:58:43;40.50;;;19.05;;
50683;SDS011;36654;45.042;38.994;2023-12-14T12:01:19;45.97;;;20.23;;
50683;SDS011;36654;45.042;38.994;2023-12-14T12:03:50;35.65;;;18.40;;
50683;SDS011;36654;45.042;38.994;2023-12-14T12:06:25;39.60;;;17.95;;
50683;SDS011;36654;45.042;38.994;2023-12-14T12:08:55;33.58;;;17.17;;
50683;SDS011;36654;45.042;38.994;2023-12-14T12:11:22;29.20;;;15.90;;
50683;SDS011;36654;45.042;38.994;2023-12-14T12:13:56;32.22;;;16.45;;
50683;SDS011;36654;45.042;38.994;2023-12-14T12:16:22;30.52;;;16.15;;
50683;SDS011;36654;45.042;38.994;2023-12-14T12:18:49;30.10;;;15.80;;
50683;SDS011;36654;45.042;38.994;2023-12-14T12:21:18;32.30;;;15.45;;
50683;SDS011;36654;45.042;38.994;2023-12-14T12:23:43;32.28;;;13.65;;
50683;SDS011;36654;45.042;38.994;2023-12-14T12:26:09;28.55;;;13.23;;
50683;SDS011;36654;45.042;38.994;2023-12-14T12:28:35;26.67;;;14.15;;
50683;SDS011;36654;45.042;38.994;2023-12-14T12:31:01;24.23;;;13.10;;
50683;SDS011;36654;45.042;38.994;2023-12-14T12:33:26;33.70;;;15.32;;
50683;SDS011;36654;45.042;38.994;2023-12-14T12:35:52;31.02;;;15.13;;
50683;SDS011;36654;45.042;38.994;2023-12-14T12:38:19;31.85;;;15.02;;
50683;SDS011;36654;45.042;38.994;2023-12-14T12:40:44;28.92;;;15.35;;
50683;SDS011;36654;45.042;38.994;2023-12-14T12:43:10;30.77;;;14.27;;
50683;SDS011;36654;45.042;38.994;2023-12-14T12:45:36;29.65;;;14.57;;
50683;SDS011;36654;45.042;38.994;2023-12-14T12:48:02;29.30;;;14.77;;
50683;SDS011;36654;45.042;38.994;2023-12-14T12:50:29;26.48;;;13.75;;
50683;SDS011;36654;45.042;38.994;2023-12-14T12:52:55;28.17;;;13.90;;
50683;SDS011;36654;45.042;38.994;2023-12-14T12:55:21;27.75;;;14.35;;
50683;SDS011;36654;45.042;38.994;2023-12-14T12:57:47;28.15;;;13.77;;
50683;SDS011;36654;45.042;38.994;2023-12-14T13:00:14;26.80;;;12.88;;
50683;SDS011;36654;45.042;38.994;2023-12-14T13:02:40;27.80;;;12.50;;
50683;SDS011;36654;45.042;38.994;2023-12-14T13:05:07;31.17;;;13.38;;
50683;SDS011;36654;45.042;38.994;2023-12-14T13:07:34;25.17;;;13.10;;
50683;SDS011;36654;45.042;38.994;2023-12-14T13:10:01;26.40;;;13.77;;
50683;SDS011;36654;45.042;38.994;2023-12-14T13:12:29;26.17;;;14.50;;
50683;SDS011;36654;45.042;38.994;2023-12-14T13:14:55;29.52;;;14.00;;
50683;SDS011;36654;45.042;38.994;2023-12-14T13:17:21;29.92;;;13.65;;
50683;SDS011;36654;45.042;38.994;2023-12-14T13:19:47;28.30;;;14.48;;
50683;SDS011;36654;45.042;38.994;2023-12-14T13:22:12;28.83;;;13.45;;
50683;SDS011;36654;45.042;38.994;2023-12-14T13:24:38;29.48;;;14.27;;
50683;SDS011;36654;45.042;38.994;2023-12-14T13:27:04;28.38;;;13.13;;
50683;SDS011;36654;45.042;38.994;2023-12-14T13:29:31;28.80;;;14.52;;
50683;SDS011;36654;45.042;38.994;2023-12-14T13:31:58;33.97;;;15.23;;
50683;SDS011;36654;45.042;38.994;2023-12-14T13:34:27;24.35;;;14.20;;
50683;SDS011;36654;45.042;38.994;2023-12-14T13:36:56;29.25;;;14.07;;
50683;SDS011;36654;45.042;38.994;2023-12-14T13:39:25;24.92;;;13.15;;
50683;SDS011;36654;45.042;38.994;2023-12-14T13:41:52;30.02;;;13.80;;
50683;SDS011;36654;45.042;38.994;2023-12-14T13:44:18;38.15;;;15.05;;
50683;SDS011;36654;45.042;38.994;2023-12-14T13:46:44;31.35;;;15.20;;
50683;SDS011;36654;45.042;38.994;2023-12-14T13:49:10;28.77;;;14.98;;
50683;SDS011;36654;45.042;38.994;2023-12-14T13:51:35;30.55;;;14.75;;
50683;SDS011;36654;45.042;38.994;2023-12-14T13:54:01;33.97;;;15.73;;
50683;SDS011;36654;45.042;38.994;2023-12-14T13:56:26;30.48;;;15.52;;
50683;SDS011;36654;45.042;38.994;2023-12-14T13:58:53;31.83;;;16.65;;
50683;SDS011;36654;45.042;38.994;2023-12-14T14:01:18;35.38;;;15.80;;
50683;SDS011;36654;45.042;38.994;2023-12-14T14:03:44;31.05;;;15.52;;
50683;SDS011;36654;45.042;38.994;2023-12-14T14:06:12;28.20;;;14.23;;
50683;SDS011;36654;45.042;38.994;2023-12-14T14:08:38;31.42;;;15.52;;
50683;SDS011;36654;45.042;38.994;2023-12-14T14:11:04;34.80;;;16.45;;
50683;SDS011;36654;45.042;38.994;2023-12-14T14:13:30;31.13;;;15.95;;
50683;SDS011;36654;45.042;38.994;2023-12-14T14:15:57;32.08;;;14.73;;
50683;SDS011;36654;45.042;38.994;2023-12-14T14:18:22;29.63;;;14.55;;
50683;SDS011;36654;45.042;38.994;2023-12-14T14:20:48;36.40;;;15.48;;